createdAt,value
2023-04-18T00:02:10.721Z,12.63
2023-04-18T00:04:37.752Z,11.73
2023-04-18T00:07:04.601Z,12.30
2023-04-18T00:09:31.465Z,11.80
2023-04-18T00:11:58.325Z,12.43
2023-04-18T00:14:25.203Z,12.57
2023-04-18T00:16:54.184Z,12.00
2023-04-18T00:19:21.580Z,12.50
2023-04-18T00:21:49.435Z,12.57
2023-04-18T00:24:16.712Z,13.18
2023-04-18T00:26:43.511Z,12.63
2023-04-18T00:29:10.251Z,13.13
2023-04-18T00:31:37.588Z,12.80
2023-04-18T00:34:04.438Z,12.30
2023-04-18T00:36:31.337Z,12.00
2023-04-18T00:38:58.220Z,12.27
2023-04-18T00:41:27.532Z,13.23
2023-04-18T00:43:54.937Z,12.82
2023-04-18T00:46:21.969Z,13.15
2023-04-18T00:48:49.494Z,12.52
2023-04-18T00:51:16.488Z,12.38
2023-04-18T00:53:44.970Z,12.82
2023-04-18T00:56:12.069Z,13.50
2023-04-18T00:58:40.896Z,13.02
2023-04-18T01:01:07.962Z,13.10
2023-04-18T01:03:35.159Z,13.13
2023-04-18T01:06:02.353Z,13.00
2023-04-18T01:08:29.520Z,12.88
2023-04-18T01:10:58.745Z,13.20
2023-04-18T01:13:25.576Z,12.75
2023-04-18T01:15:54.021Z,12.65
2023-04-18T01:18:21.083Z,13.10
2023-04-18T01:20:50.037Z,12.48
2023-04-18T01:23:18.365Z,12.18
2023-04-18T01:25:46.917Z,12.40
2023-04-18T01:28:14.966Z,13.27
2023-04-18T01:30:41.957Z,13.02
2023-04-18T01:33:08.878Z,12.55
2023-04-18T01:35:35.763Z,12.98
2023-04-18T01:38:02.749Z,12.45
2023-04-18T01:40:30.237Z,12.15
2023-04-18T01:42:57.107Z,11.57
2023-04-18T01:45:24.023Z,12.50
2023-04-18T01:47:50.861Z,12.73
2023-04-18T01:50:17.726Z,12.05
2023-04-18T01:52:44.598Z,12.55
2023-04-18T01:55:11.489Z,11.98
2023-04-18T01:57:38.499Z,11.30
2023-04-18T02:00:07.595Z,12.98
2023-04-18T02:02:43.772Z,11.48
2023-04-18T02:05:10.983Z,11.68
2023-04-18T02:07:39.733Z,11.63
2023-04-18T02:10:07.118Z,11.73
2023-04-18T02:12:34.321Z,11.55
2023-04-18T02:15:01.401Z,12.30
2023-04-18T02:17:28.987Z,11.25
2023-04-18T02:19:55.902Z,11.93
2023-04-18T02:22:22.800Z,11.25
2023-04-18T02:24:49.590Z,10.55
2023-04-18T02:27:16.581Z,11.15
2023-04-18T02:29:43.396Z,11.10
2023-04-18T02:32:10.561Z,11.70
2023-04-18T02:34:37.590Z,11.32
2023-04-18T02:37:04.777Z,11.65
2023-04-18T02:39:32.494Z,10.40
2023-04-18T02:41:59.442Z,11.80
2023-04-18T02:44:26.366Z,11.13
2023-04-18T02:46:53.332Z,10.82
2023-04-18T02:49:20.269Z,11.43
2023-04-18T02:51:47.852Z,11.73
2023-04-18T02:54:16.568Z,11.98
2023-04-18T02:57:03.793Z,11.77
2023-04-18T02:59:46.094Z,10.98
2023-04-18T03:02:31.642Z,11.45
2023-04-18T03:05:07.045Z,11.45
2023-04-18T03:07:34.109Z,11.90
2023-04-18T03:10:00.987Z,12.65
2023-04-18T03:12:32.997Z,12.18
2023-04-18T03:15:00.577Z,11.57
2023-04-18T03:17:28.393Z,11.38
2023-04-18T03:19:55.313Z,11.57
2023-04-18T03:22:23.523Z,12.18
2023-04-18T03:24:56.230Z,11.48
2023-04-18T03:27:35.449Z,11.60
2023-04-18T03:30:03.109Z,11.70
2023-04-18T03:32:34.006Z,12.63
2023-04-18T03:35:01.276Z,12.13
2023-04-18T03:37:28.974Z,11.68
2023-04-18T03:39:57.252Z,12.30
2023-04-18T03:42:27.085Z,12.35
2023-04-18T03:44:53.855Z,12.05
2023-04-18T03:47:21.238Z,12.27
2023-04-18T03:52:23.056Z,10.93
2023-04-18T03:54:49.912Z,11.68
2023-04-18T03:57:19.718Z,11.57
2023-04-18T03:59:47.926Z,12.30
2023-04-18T04:02:15.357Z,11.70
2023-04-18T04:04:42.875Z,12.57
2023-04-18T04:07:12.085Z,11.82
2023-04-18T04:09:38.900Z,11.65
2023-04-18T04:12:06.860Z,11.48
2023-04-18T04:14:35.739Z,11.75
2023-04-18T04:17:03.212Z,12.32
2023-04-18T04:19:31.415Z,12.43
2023-04-18T04:22:09.766Z,11.95
2023-04-18T04:24:38.686Z,12.75
2023-04-18T04:27:06.889Z,12.40
2023-04-18T04:29:36.170Z,12.23
2023-04-18T04:32:05.701Z,12.32
2023-04-18T04:34:36.905Z,12.73
2023-04-18T04:37:06.092Z,12.55
2023-04-18T04:39:39.528Z,11.98
2023-04-18T04:42:25.275Z,12.77
2023-04-18T04:44:59.643Z,11.82
2023-04-18T04:47:26.670Z,11.63
2023-04-18T04:49:54.279Z,12.82
2023-04-18T04:52:21.177Z,13.27
2023-04-18T04:54:48.139Z,12.95
2023-04-18T04:57:18.008Z,12.98
2023-04-18T04:59:44.878Z,12.70
2023-04-18T05:02:12.242Z,13.18
2023-04-18T05:04:39.341Z,12.60
2023-04-18T05:07:06.338Z,13.30
2023-04-18T05:09:33.160Z,12.50
2023-04-18T05:12:00.106Z,12.40
2023-04-18T05:14:27.737Z,12.43
2023-04-18T05:16:55.727Z,12.88
2023-04-18T05:19:23.253Z,13.85
2023-04-18T05:21:50.074Z,12.65
2023-04-18T05:24:17.023Z,12.60
2023-04-18T05:26:43.945Z,12.77
2023-04-18T05:29:10.807Z,11.68
2023-04-18T05:31:37.636Z,12.82
2023-04-18T05:34:04.504Z,12.52
2023-04-18T05:36:31.781Z,12.27
2023-04-18T05:38:58.579Z,11.63
2023-04-18T05:41:25.433Z,13.07
2023-04-18T05:44:04.367Z,12.13
2023-04-18T05:46:32.499Z,12.98
2023-04-18T05:48:59.358Z,13.07
2023-04-18T05:51:26.718Z,13.40
2023-04-18T05:53:53.528Z,13.63
2023-04-18T05:56:20.748Z,13.05
2023-04-18T05:58:47.808Z,12.20
2023-04-18T06:01:14.678Z,13.23
2023-04-18T06:03:42.320Z,12.45
2023-04-18T06:06:09.720Z,12.73
2023-04-18T06:08:38.282Z,12.55
2023-04-18T06:11:05.142Z,12.35
2023-04-18T06:13:32.566Z,12.95
2023-04-18T06:16:00.856Z,11.60
2023-04-18T06:18:27.701Z,12.77
2023-04-18T06:20:54.897Z,12.60
2023-04-18T06:23:21.719Z,12.40
2023-04-18T06:25:48.504Z,13.43
2023-04-18T06:28:15.332Z,12.35
2023-04-18T06:30:42.115Z,12.60
2023-04-18T06:33:11.783Z,12.48
2023-04-18T06:35:38.824Z,13.40
2023-04-18T06:38:05.898Z,12.52
2023-04-18T06:40:32.781Z,12.73
2023-04-18T06:42:59.566Z,12.68
2023-04-18T06:45:26.698Z,13.48
2023-04-18T06:47:53.647Z,11.95
2023-04-18T06:50:20.501Z,12.43
2023-04-18T06:52:47.312Z,12.88
2023-04-18T06:55:14.235Z,13.75
2023-04-18T06:57:42.495Z,13.50
2023-04-18T07:00:10.543Z,14.40
2023-04-18T07:02:39.313Z,13.13
2023-04-18T07:05:06.918Z,12.85
2023-04-18T07:07:34.866Z,13.40
2023-04-18T07:10:02.036Z,13.27
2023-04-18T07:12:28.882Z,13.57
2023-04-18T07:14:55.738Z,12.35
2023-04-18T07:17:22.628Z,12.63
2023-04-18T07:19:49.496Z,12.82
2023-04-18T07:22:16.337Z,12.85
2023-04-18T07:24:44.073Z,12.80
2023-04-18T07:27:10.963Z,13.00
2023-04-18T07:29:37.756Z,12.32
2023-04-18T07:32:06.192Z,13.27
2023-04-18T07:34:36.169Z,12.57
2023-04-18T07:37:03.344Z,13.02
2023-04-18T07:39:31.857Z,13.40
2023-04-18T07:41:58.879Z,12.57
2023-04-18T07:44:25.883Z,11.95
2023-04-18T07:46:52.920Z,12.57
2023-04-18T07:49:19.767Z,13.10
2023-04-18T07:51:46.608Z,13.25
2023-04-18T07:54:13.454Z,12.48
2023-04-18T07:56:40.994Z,12.85
2023-04-18T07:59:07.889Z,12.23
2023-04-18T08:01:34.725Z,11.70
2023-04-18T08:04:02.160Z,11.77
2023-04-18T08:06:29.429Z,13.32
2023-04-18T08:08:56.297Z,11.73
2023-04-18T08:11:23.166Z,12.52
2023-04-18T08:13:50.252Z,12.05
2023-04-18T08:16:17.598Z,12.40
2023-04-18T08:18:44.644Z,12.75
2023-04-18T08:21:11.542Z,12.07
2023-04-18T08:23:38.602Z,11.27
2023-04-18T08:26:05.568Z,11.90
2023-04-18T08:28:32.639Z,12.70
2023-04-18T08:30:59.615Z,12.75
2023-04-18T08:33:27.225Z,12.20
2023-04-18T08:35:54.378Z,12.05
2023-04-18T08:38:21.215Z,12.25
2023-04-18T08:40:48.353Z,11.88
2023-04-18T08:43:15.749Z,12.90
2023-04-18T08:45:44.071Z,12.85
2023-04-18T08:48:18.137Z,12.57
2023-04-18T08:50:45.358Z,12.00
2023-04-18T08:53:12.296Z,11.98
2023-04-18T08:55:40.469Z,13.05
2023-04-18T08:58:08.171Z,12.55
2023-04-18T09:00:35.204Z,12.45
2023-04-18T09:03:03.821Z,12.35
2023-04-18T09:05:30.981Z,12.10
2023-04-18T09:07:57.867Z,12.90
2023-04-18T09:10:33.570Z,11.93
2023-04-18T09:13:03.561Z,12.25
2023-04-18T09:15:31.056Z,12.73
2023-04-18T09:18:02.251Z,12.57
2023-04-18T09:20:35.602Z,12.02
2023-04-18T09:23:11.039Z,12.85
2023-04-18T09:25:49.315Z,12.13
2023-04-18T09:28:30.510Z,12.95
2023-04-18T09:31:15.565Z,12.40
2023-04-18T09:33:56.728Z,12.05
2023-04-18T09:36:29.252Z,13.35
2023-04-18T09:38:57.276Z,12.55
2023-04-18T09:41:24.489Z,12.23
2023-04-18T09:44:14.432Z,13.27
2023-04-18T09:46:43.858Z,12.80
2023-04-18T09:49:12.538Z,12.18
2023-04-18T09:51:41.613Z,12.10
2023-04-18T09:54:11.061Z,11.95
2023-04-18T09:56:42.369Z,11.95
2023-04-18T09:59:10.054Z,11.90
2023-04-18T10:01:37.739Z,11.73
2023-04-18T10:04:06.784Z,12.98
2023-04-18T10:06:37.385Z,12.00
2023-04-18T10:09:05.741Z,11.02
2023-04-18T10:11:32.963Z,11.90
2023-04-18T10:14:08.055Z,11.88
2023-04-18T10:16:36.431Z,12.05
2023-04-18T10:19:29.628Z,11.68
2023-04-18T10:21:58.410Z,11.63
2023-04-18T10:24:53.549Z,12.05
2023-04-18T10:27:48.688Z,11.65
2023-04-18T10:30:16.573Z,11.25
2023-04-18T10:32:45.560Z,10.70
2023-04-18T10:35:12.521Z,11.13
2023-04-18T10:37:52.106Z,10.35
2023-04-18T10:40:34.252Z,10.88
2023-04-18T10:43:01.504Z,10.60
2023-04-18T10:45:36.266Z,11.15
2023-04-18T10:48:25.960Z,10.77
2023-04-18T10:51:20.663Z,10.38
2023-04-18T10:53:54.373Z,10.73
2023-04-18T10:56:21.715Z,9.75
2023-04-18T10:58:52.991Z,9.70
2023-04-18T11:01:28.580Z,9.60
2023-04-18T11:03:57.584Z,9.27
2023-04-18T11:06:27.148Z,8.88
2023-04-18T11:09:14.012Z,9.23
2023-04-18T11:11:42.041Z,8.80
2023-04-18T11:14:08.858Z,8.48
2023-04-18T11:16:35.981Z,8.70
2023-04-18T11:19:23.683Z,8.57
2023-04-18T11:21:51.512Z,8.07
2023-04-18T11:24:24.584Z,8.27
2023-04-18T11:29:22.785Z,8.82
2023-04-18T11:31:55.965Z,7.88
2023-04-18T11:34:30.373Z,8.23
2023-04-18T11:36:57.710Z,8.90
2023-04-18T11:39:24.534Z,8.68
2023-04-18T11:41:51.460Z,7.93
2023-04-18T11:44:23.087Z,7.80
2023-04-18T11:46:51.372Z,7.95
2023-04-18T11:49:28.914Z,8.15
2023-04-18T11:51:56.166Z,7.18
2023-04-18T11:54:44.349Z,7.50
2023-04-18T11:57:28.119Z,7.43
2023-04-18T11:59:57.618Z,7.00
2023-04-18T12:02:27.921Z,7.07
2023-04-18T12:04:57.721Z,6.68
2023-04-18T12:07:32.893Z,6.28
2023-04-18T12:09:59.783Z,6.68
2023-04-18T12:12:26.681Z,7.18
2023-04-18T12:15:07.229Z,6.20
2023-04-18T12:17:36.085Z,5.78
2023-04-18T12:20:05.916Z,5.50
2023-04-18T12:22:43.043Z,5.75
2023-04-18T12:25:27.129Z,5.22
2023-04-18T12:27:58.127Z,5.88
2023-04-18T12:30:37.335Z,4.63
2023-04-18T12:33:04.983Z,5.30
2023-04-18T12:35:32.477Z,5.57
2023-04-18T12:38:01.037Z,5.30
2023-04-18T12:40:28.958Z,5.40
2023-04-18T12:42:56.235Z,5.30
2023-04-18T12:45:23.633Z,5.60
2023-04-18T12:47:52.090Z,5.47
2023-04-18T12:50:21.984Z,6.05
2023-04-18T12:52:52.584Z,6.07
2023-04-18T12:55:20.665Z,5.88
2023-04-18T12:57:47.592Z,5.53
2023-04-18T13:00:14.847Z,5.85
2023-04-18T13:02:44.356Z,5.55
2023-04-18T13:05:13.324Z,5.50
2023-04-18T13:07:42.433Z,6.35
2023-04-18T13:10:14.162Z,5.75
2023-04-18T13:12:41.470Z,5.50
2023-04-18T13:15:09.553Z,5.43
2023-04-18T13:17:40.178Z,5.95
2023-04-18T13:20:10.654Z,5.15
2023-04-18T13:22:38.478Z,5.07
2023-04-18T13:25:07.203Z,5.40
2023-04-18T13:27:34.315Z,5.13
2023-04-18T13:30:01.484Z,5.07
2023-04-18T13:32:28.518Z,5.72
2023-04-18T13:34:56.384Z,6.38
2023-04-18T13:37:23.986Z,5.65
2023-04-18T13:39:50.844Z,4.32
2023-04-18T13:42:19.323Z,5.03
2023-04-18T13:44:46.649Z,4.50
2023-04-18T13:47:13.509Z,5.13
2023-04-18T13:49:41.086Z,5.07
2023-04-18T13:52:07.980Z,4.65
2023-04-18T13:54:35.096Z,4.88
2023-04-18T13:57:03.126Z,4.45
2023-04-18T13:59:32.529Z,4.40
2023-04-18T14:01:59.819Z,4.47
2023-04-18T14:04:27.401Z,4.45
2023-04-18T14:06:54.986Z,4.32
2023-04-18T14:09:21.907Z,4.57
2023-04-18T14:11:48.840Z,4.70
2023-04-18T14:14:15.714Z,4.20
2023-04-18T14:16:42.539Z,3.67
2023-04-18T14:19:09.405Z,4.20
2023-04-18T14:21:36.402Z,4.13
2023-04-18T14:24:03.841Z,4.22
2023-04-18T14:26:30.942Z,4.13
2023-04-18T14:28:57.736Z,4.40
2023-04-18T14:31:24.635Z,4.20
2023-04-18T14:33:51.565Z,4.40
2023-04-18T14:36:18.436Z,4.18
2023-04-18T14:38:49.016Z,4.00
2023-04-18T14:41:16.496Z,4.30
2023-04-18T14:43:43.370Z,4.43
2023-04-18T14:46:16.247Z,3.78
2023-04-18T14:48:46.348Z,4.32
2023-04-18T14:51:14.339Z,3.92
2023-04-18T14:53:41.163Z,4.10
2023-04-18T14:56:08.096Z,4.05
2023-04-18T14:58:34.936Z,3.72
2023-04-18T15:01:01.794Z,3.50
2023-04-18T15:03:28.821Z,4.43
2023-04-18T15:05:56.627Z,3.75
2023-04-18T15:08:23.912Z,3.97
2023-04-18T15:10:50.892Z,4.03
2023-04-18T15:13:17.828Z,3.75
2023-04-18T15:15:51.806Z,3.92
2023-04-18T15:18:18.708Z,4.13
2023-04-18T15:20:45.689Z,3.90
2023-04-18T15:23:13.817Z,4.10
2023-04-18T15:25:41.770Z,3.78
2023-04-18T15:28:08.705Z,3.72
2023-04-18T15:30:35.650Z,3.80
2023-04-18T15:33:02.745Z,4.07
2023-04-18T15:35:29.703Z,3.92
2023-04-18T15:37:57.443Z,3.78
2023-04-18T15:40:25.627Z,3.45
2023-04-18T15:42:54.249Z,3.83
2023-04-18T15:45:21.857Z,3.50
2023-04-18T15:47:48.937Z,3.90
2023-04-18T15:50:18.480Z,3.65
2023-04-18T15:52:45.761Z,3.70
2023-04-18T15:55:13.400Z,3.78
2023-04-18T15:57:41.695Z,3.55
2023-04-18T16:00:17.702Z,3.58
2023-04-18T16:02:45.746Z,3.70
2023-04-18T16:05:13.655Z,3.67
2023-04-18T16:07:41.316Z,3.58
2023-04-18T16:10:10.477Z,3.83
2023-04-18T16:12:38.653Z,3.38
2023-04-18T16:15:06.998Z,3.20
2023-04-18T16:17:34.380Z,3.40
2023-04-18T16:20:01.375Z,3.50
2023-04-18T16:22:28.294Z,3.22
2023-04-18T16:24:55.063Z,3.47
2023-04-18T16:27:22.113Z,3.00
2023-04-18T16:29:48.920Z,3.95
2023-04-18T16:32:15.883Z,3.33
2023-04-18T16:34:42.708Z,3.35
2023-04-18T16:37:09.545Z,3.08
2023-04-18T16:39:36.368Z,3.20
2023-04-18T16:42:03.811Z,3.20
2023-04-18T16:44:30.766Z,3.40
2023-04-18T16:46:57.759Z,3.28
2023-04-18T16:49:25.259Z,3.25
2023-04-18T16:51:52.182Z,3.63
2023-04-18T16:54:19.019Z,3.53
2023-04-18T16:56:45.946Z,3.83
2023-04-18T16:59:13.017Z,3.63
2023-04-18T17:01:39.986Z,3.78
2023-04-18T17:04:07.146Z,3.80
2023-04-18T17:06:34.191Z,3.33
2023-04-18T17:09:01.345Z,3.55
2023-04-18T17:11:28.465Z,3.65
2023-04-18T17:13:55.389Z,3.38
2023-04-18T17:16:22.288Z,3.78
2023-04-18T17:18:49.190Z,3.97
2023-04-18T17:21:16.115Z,3.45
2023-04-18T17:23:43.096Z,4.40
2023-04-18T17:26:10.254Z,4.45
2023-04-18T17:28:37.254Z,4.00
2023-04-18T17:31:04.526Z,4.05
2023-04-18T17:33:31.667Z,3.97
2023-04-18T17:35:58.820Z,5.32
2023-04-18T17:38:25.967Z,4.10
2023-04-18T17:41:00.103Z,56.28
2023-04-18T17:43:27.085Z,7.22
2023-04-18T17:45:55.414Z,4.75
2023-04-18T17:48:22.308Z,5.50
2023-04-18T17:50:49.267Z,4.70
2023-04-18T17:53:17.583Z,5.20
2023-04-18T17:55:46.829Z,5.10
2023-04-18T17:58:13.978Z,4.70
2023-04-18T18:00:40.999Z,4.38
2023-04-18T18:03:13.632Z,4.75
2023-04-18T18:05:41.833Z,5.10
2023-04-18T18:08:08.664Z,4.63
2023-04-18T18:10:35.573Z,5.13
2023-04-18T18:13:02.445Z,4.80
2023-04-18T18:15:29.772Z,5.20
2023-04-18T18:17:56.819Z,5.70
2023-04-18T18:20:24.167Z,5.95
2023-04-18T18:22:51.471Z,4.68
2023-04-18T18:25:18.473Z,4.95
2023-04-18T18:27:45.362Z,5.47
2023-04-18T18:30:12.486Z,5.43
2023-04-18T18:32:39.349Z,4.13
2023-04-18T18:35:06.393Z,5.05
2023-04-18T18:37:33.397Z,5.25
2023-04-18T18:40:00.206Z,5.15
2023-04-18T18:42:27.054Z,5.28
2023-04-18T18:44:53.868Z,4.68
2023-04-18T18:47:20.739Z,4.90
2023-04-18T18:49:48.681Z,4.55
2023-04-18T18:52:16.048Z,4.57
2023-04-18T18:54:45.536Z,4.63
2023-04-18T18:57:12.488Z,4.90
2023-04-18T18:59:39.338Z,5.03
2023-04-18T19:02:06.694Z,4.85
2023-04-18T19:04:34.041Z,4.68
2023-04-18T19:07:00.969Z,4.78
2023-04-18T19:09:27.935Z,4.85
2023-04-18T19:11:55.211Z,5.13
2023-04-18T19:14:22.058Z,4.97
2023-04-18T19:16:51.069Z,4.88
2023-04-18T19:19:17.938Z,5.25
2023-04-18T19:21:46.068Z,5.05
2023-04-18T19:24:13.468Z,5.95
2023-04-18T19:26:41.452Z,5.68
2023-04-18T19:29:09.840Z,5.88
2023-04-18T19:31:38.768Z,6.03
2023-04-18T19:34:05.661Z,5.93
2023-04-18T19:36:32.633Z,6.15
2023-04-18T19:39:00.941Z,5.88
2023-04-18T19:41:27.963Z,6.40
2023-04-18T19:43:54.800Z,6.32
2023-04-18T19:46:25.018Z,6.97
2023-04-18T19:48:51.940Z,6.00
2023-04-18T19:51:18.790Z,6.45
2023-04-18T19:53:46.353Z,6.30
2023-04-18T19:56:14.932Z,5.85
2023-04-18T19:58:53.547Z,6.10
2023-04-18T20:01:21.111Z,6.30
2023-04-18T20:03:50.729Z,5.80
2023-04-18T20:06:18.357Z,6.05
2023-04-18T20:08:46.148Z,6.35
2023-04-18T20:11:14.263Z,5.95
2023-04-18T20:13:41.559Z,6.20
2023-04-18T20:16:09.687Z,5.95
2023-04-18T20:18:39.626Z,6.57
2023-04-18T20:21:07.724Z,6.35
2023-04-18T20:23:42.084Z,6.25
2023-04-18T20:26:09.389Z,6.15
2023-04-18T20:28:37.833Z,5.70
2023-04-18T20:31:08.114Z,6.55
2023-04-18T20:33:36.143Z,6.03
2023-04-18T20:36:06.378Z,6.07
2023-04-18T20:38:33.801Z,6.47
2023-04-18T20:41:05.225Z,6.53
2023-04-18T20:43:36.556Z,6.00
2023-04-18T20:46:03.676Z,6.63
2023-04-18T20:48:30.615Z,6.45
2023-04-18T20:50:57.475Z,6.57
2023-04-18T20:53:28.894Z,6.43
2023-04-18T20:55:55.766Z,5.85
2023-04-18T20:58:22.691Z,6.40
2023-04-18T21:00:49.605Z,6.30
2023-04-18T21:03:17.236Z,6.03
2023-04-18T21:05:45.061Z,6.22
2023-04-18T21:08:12.111Z,6.43
2023-04-18T21:10:39.686Z,7.05
2023-04-18T21:13:06.601Z,6.63
2023-04-18T21:15:35.283Z,6.78
2023-04-18T21:18:02.228Z,7.05
2023-04-18T21:20:29.362Z,6.53
2023-04-18T21:22:56.281Z,7.00
2023-04-18T21:25:23.079Z,6.32
2023-04-18T21:27:50.930Z,6.28
2023-04-18T21:30:18.130Z,7.40
2023-04-18T21:32:47.094Z,6.25
2023-04-18T21:35:14.040Z,6.40
2023-04-18T21:37:40.851Z,6.72
2023-04-18T21:40:08.402Z,6.50
2023-04-18T21:42:35.712Z,7.00
2023-04-18T21:45:03.178Z,6.70
2023-04-18T21:47:31.806Z,6.53
2023-04-18T21:49:59.497Z,6.45
2023-04-18T21:52:26.400Z,6.22
2023-04-18T21:54:53.255Z,6.28
2023-04-18T21:57:20.127Z,7.13
2023-04-18T21:59:46.956Z,6.57
2023-04-18T22:02:13.940Z,7.05
2023-04-18T22:04:42.583Z,6.38
2023-04-18T22:07:09.979Z,6.15
2023-04-18T22:09:37.081Z,6.45
2023-04-18T22:12:04.302Z,6.50
2023-04-18T22:14:34.043Z,6.43
2023-04-18T22:17:04.825Z,5.95
2023-04-18T22:19:31.772Z,6.90
2023-04-18T22:21:58.820Z,7.15
2023-04-18T22:24:28.306Z,6.72
2023-04-18T22:26:55.718Z,6.40
2023-04-18T22:29:22.474Z,6.97
2023-04-18T22:31:49.270Z,6.03
2023-04-18T22:34:16.264Z,6.18
2023-04-18T22:36:45.477Z,6.30
2023-04-18T22:39:12.374Z,7.25
2023-04-18T22:41:39.216Z,6.63
2023-04-18T22:44:06.082Z,7.25
2023-04-18T22:46:33.144Z,7.32
2023-04-18T22:49:00.012Z,6.55
2023-04-18T22:51:28.676Z,7.05
2023-04-18T22:53:56.344Z,7.18
2023-04-18T22:56:23.312Z,6.80
2023-04-18T22:58:50.116Z,6.22
2023-04-18T23:01:17.052Z,7.75
2023-04-18T23:03:44.039Z,7.18
2023-04-18T23:06:11.245Z,6.50
2023-04-18T23:08:38.186Z,7.28
2023-04-18T23:11:05.102Z,6.68
2023-04-18T23:13:31.884Z,7.60
2023-04-18T23:15:58.761Z,7.38
2023-04-18T23:18:25.607Z,6.95
2023-04-18T23:20:52.406Z,7.35
2023-04-18T23:23:19.251Z,7.03
2023-04-18T23:25:46.088Z,7.50
2023-04-18T23:28:13.675Z,6.85
2023-04-18T23:30:40.590Z,7.07
2023-04-18T23:33:08.479Z,7.03
2023-04-18T23:35:35.396Z,7.20
2023-04-18T23:38:02.226Z,7.00
2023-04-18T23:40:29.061Z,6.85
2023-04-18T23:42:55.826Z,7.70
2023-04-18T23:45:24.339Z,6.70
2023-04-18T23:47:51.674Z,7.00
2023-04-18T23:50:18.535Z,7.47
2023-04-18T23:52:45.318Z,7.75
2023-04-18T23:55:12.314Z,7.50
2023-04-18T23:57:39.118Z,7.72
